Time;durP1;ratioP1;P1;durP2;ratioP2;P2;SDS_P1;SDS_P2;PMS_P1;PMS_P2;Temp;Humidity;BMP_temperature;BMP_pressure;BME280_temperature;BME280_humidity;BME280_pressure;Samples;Min_cycle;Max_cycle;Signal;HPM_P1;HPM_P2
2021/04/11 00:00:06;;;;;;;1.93;1.83;;;12.70;50.20;;;;;;5045754;28;20630;-83
2021/04/11 00:02:33;;;;;;;2.50;2.10;;;12.60;49.80;;;;;;5046650;28;20648;-82
2021/04/11 00:05:00;;;;;;;4.40;3.70;;;12.60;50.30;;;;;;5045342;28;20630;-82
2021/04/11 00:07:26;;;;;;;4.80;2.00;;;12.50;50.60;;;;;;5050756;28;21214;-82
2021/04/11 00:09:53;;;;;;;2.27;2.10;;;12.50;50.40;;;;;;5048498;28;20692;-83
2021/04/11 00:12:19;;;;;;;1.93;1.77;;;12.40;50.60;;;;;;5048754;28;20674;-82
2021/04/11 00:14:45;;;;;;;2.60;2.07;;;12.30;50.80;;;;;;5051654;28;20729;-82
2021/04/11 00:17:12;;;;;;;2.23;2.03;;;12.30;50.90;;;;;;5044733;28;20618;-81
2021/04/11 00:19:38;;;;;;;2.50;2.30;;;12.20;51.10;;;;;;5044664;28;20615;-81
2021/04/11 00:22:06;;;;;;;2.50;2.30;;;12.20;51.40;;;;;;5044063;28;21199;-82
2021/04/11 00:24:33;;;;;;;2.67;2.07;;;12.10;51.10;;;;;;5051334;28;20618;-81
2021/04/11 00:26:59;;;;;;;2.33;2.13;;;12.10;51.50;;;;;;5045094;28;20674;-82
2021/04/11 00:29:26;;;;;;;2.20;2.00;;;12.00;51.50;;;;;;5050779;28;20975;-81
2021/04/11 00:31:52;;;;;;;2.43;2.23;;;12.00;51.70;;;;;;5047974;28;20681;-82
2021/04/11 00:34:19;;;;;;;1.97;1.77;;;11.90;51.40;;;;;;5048616;28;20676;-82
2021/04/11 00:36:45;;;;;;;1.87;1.57;;;11.90;51.60;;;;;;5051024;28;20635;-81
2021/04/11 00:39:12;;;;;;;2.00;1.67;;;11.80;51.60;;;;;;5044328;28;20622;-81
2021/04/11 00:41:42;;;;;;;1.87;1.67;;;11.70;51.60;;;;;;5051446;28;20634;-82
2021/04/11 00:44:09;;;;;;;2.40;1.77;;;11.70;51.80;;;;;;5044184;28;20666;-81
2021/04/11 00:46:44;;;;;;;2.30;1.63;;;11.70;51.60;;;;;;5051316;28;20623;-82
2021/04/11 00:49:17;;;;;;;1.37;1.27;;;11.70;51.70;;;;;;5046499;28;20637;-82
2021/04/11 00:51:43;;;;;;;1.77;1.67;;;11.70;51.60;;;;;;5050736;28;21222;-82
2021/04/11 00:54:10;;;;;;;1.60;1.50;;;11.80;51.40;;;;;;5047083;28;20966;-82
2021/04/11 00:56:38;;;;;;;1.50;1.40;;;11.80;51.20;;;;;;5051490;28;20630;-82
2021/04/11 00:59:07;;;;;;;1.70;1.60;;;11.70;51.20;;;;;;5048425;28;20618;-82
2021/04/11 01:01:34;;;;;;;1.67;1.57;;;11.70;51.10;;;;;;5047720;28;20634;-82
2021/04/11 01:04:01;;;;;;;7.40;1.77;;;11.70;51.20;;;;;;5050713;28;20722;-83
2021/04/11 01:06:36;;;;;;;3.17;2.00;;;11.70;51.30;;;;;;5046584;28;21006;-82
2021/04/11 01:09:10;;;;;;;2.23;1.60;;;11.60;51.30;;;;;;5050645;28;20615;-82
2021/04/11 01:11:41;;;;;;;3.70;1.60;;;11.60;51.40;;;;;;5039249;28;20744;-82
2021/04/11 01:14:10;;;;;;;2.20;2.00;;;11.70;51.70;;;;;;5050029;28;20619;-82
2021/04/11 01:16:38;;;;;;;2.13;1.90;;;11.60;51.60;;;;;;5046921;28;20626;-82
2021/04/11 01:19:08;;;;;;;3.50;1.83;;;11.60;51.70;;;;;;5050972;28;20303;-82
2021/04/11 01:21:44;;;;;;;3.30;1.73;;;11.60;52.00;;;;;;5046647;28;20623;-82
2021/04/11 01:24:17;;;;;;;2.03;1.80;;;11.60;51.90;;;;;;5050605;28;20633;-82
2021/04/11 01:26:47;;;;;;;1.70;1.60;;;11.60;51.80;;;;;;5047486;28;20663;-81
2021/04/11 01:29:14;;;;;;;1.80;1.70;;;11.60;52.00;;;;;;5049071;28;20643;-83
2021/04/11 01:31:43;;;;;;;1.70;1.60;;;11.60;52.00;;;;;;5047400;28;20694;-82
2021/04/11 01:34:11;;;;;;;1.87;1.60;;;11.60;51.90;;;;;;5044305;28;20636;-82
2021/04/11 01:36:42;;;;;;;3.47;2.27;;;11.70;51.90;;;;;;5047264;28;20638;-83
2021/04/11 01:39:14;;;;;;;2.40;1.93;;;11.70;52.00;;;;;;5047460;28;20953;-81
2021/04/11 01:41:43;;;;;;;2.60;1.73;;;11.70;51.90;;;;;;5049137;28;20638;-83
2021/04/11 01:44:15;;;;;;;1.63;1.53;;;11.60;52.00;;;;;;5046266;28;20634;-83
2021/04/11 01:46:43;;;;;;;2.30;1.60;;;11.60;52.20;;;;;;5046945;28;20711;-82
2021/04/11 01:49:11;;;;;;;2.23;1.67;;;11.60;52.10;;;;;;5042091;28;20650;-82
2021/04/11 01:51:45;;;;;;;2.17;1.63;;;11.70;52.40;;;;;;5047786;28;20676;-82
2021/04/11 01:54:18;;;;;;;1.73;1.60;;;11.70;52.20;;;;;;5044341;28;20631;-82
2021/04/11 01:56:47;;;;;;;1.50;1.40;;;11.80;52.40;;;;;;5050703;28;20630;-82
2021/04/11 01:59:18;;;;;;;1.60;1.50;;;11.80;52.30;;;;;;5045998;28;20635;-82
2021/04/11 02:01:48;;;;;;;2.23;1.93;;;11.80;52.30;;;;;;5040244;28;20643;-82
2021/04/11 02:04:18;;;;;;;1.60;1.50;;;11.80;52.20;;;;;;5048141;28;20660;-82
2021/04/11 02:06:49;;;;;;;1.50;1.27;;;11.80;52.50;;;;;;5047521;28;20639;-83
2021/04/11 02:09:20;;;;;;;3.70;1.57;;;11.90;52.20;;;;;;5048538;28;21089;-82
2021/04/11 02:11:48;;;;;;;3.13;2.37;;;11.90;52.50;;;;;;5049849;28;21268;-82
2021/04/11 02:14:17;;;;;;;2.70;1.80;;;11.90;52.40;;;;;;5045489;28;20627;-82
2021/04/11 02:16:44;;;;;;;2.27;1.97;;;11.90;52.80;;;;;;5050694;28;20670;-82
2021/04/11 02:19:15;;;;;;;2.43;2.30;;;11.90;52.60;;;;;;5046050;28;20723;-81
2021/04/11 02:21:44;;;;;;;4.10;1.80;;;11.90;53.10;;;;;;5050138;28;20719;-82
2021/04/11 02:24:12;;;;;;;2.00;1.90;;;11.90;53.10;;;;;;5044599;28;20619;-82
2021/04/11 02:26:39;;;;;;;2.57;2.30;;;11.90;53.20;;;;;;5049906;28;20633;-82
2021/04/11 02:29:07;;;;;;;3.33;2.10;;;11.90;53.60;;;;;;5045659;28;20652;-83
2021/04/11 02:31:35;;;;;;;2.57;1.60;;;11.80;53.90;;;;;;5049235;28;20670;-81
2021/04/11 02:34:04;;;;;;;3.70;1.77;;;11.80;53.70;;;;;;5047135;28;21156;-81
2021/04/11 02:36:41;;;;;;;1.97;1.87;;;11.80;54.40;;;;;;5046863;28;21252;-82
2021/04/11 02:39:11;;;;;;;1.97;1.67;;;11.80;54.60;;;;;;5049942;28;21207;-82
2021/04/11 02:41:39;;;;;;;5.07;2.03;;;11.80;54.90;;;;;;5046179;28;21167;-82
2021/04/11 02:44:06;;;;;;;5.13;2.20;;;11.70;55.40;;;;;;5049503;28;21016;-82
2021/04/11 02:46:35;;;;;;;3.47;1.87;;;11.80;55.90;;;;;;5046367;28;20622;-82
2021/04/11 02:49:03;;;;;;;2.73;2.53;;;11.70;56.50;;;;;;5050272;28;20619;-82
2021/04/11 02:51:33;;;;;;;2.83;2.33;;;11.60;57.20;;;;;;5039405;28;20666;-82
2021/04/11 02:54:01;;;;;;;2.40;2.20;;;11.60;57.30;;;;;;5048667;28;20633;-82
2021/04/11 02:56:29;;;;;;;2.60;2.23;;;11.60;57.20;;;;;;5049768;28;20630;-82
2021/04/11 02:58:56;;;;;;;2.70;2.27;;;11.60;56.90;;;;;;5049479;28;20621;-82
2021/04/11 03:01:28;;;;;;;2.70;2.40;;;11.60;57.20;;;;;;5051859;28;20634;-82
2021/04/11 03:03:56;;;;;;;3.20;2.50;;;11.60;57.30;;;;;;5050933;28;20678;-82
2021/04/11 03:06:28;;;;;;;2.27;2.07;;;11.60;57.10;;;;;;5053651;28;20648;-82
2021/04/11 03:08:59;;;;;;;3.73;2.30;;;11.60;56.80;;;;;;5045874;28;20614;-82
2021/04/11 03:11:29;;;;;;;2.33;2.13;;;11.60;57.30;;;;;;5052859;28;20712;-82
2021/04/11 03:13:58;;;;;;;2.23;1.97;;;11.60;57.30;;;;;;5048011;28;20646;-82
2021/04/11 03:16:26;;;;;;;3.47;2.20;;;11.60;57.50;;;;;;5052880;28;20634;-82
2021/04/11 03:18:54;;;;;;;2.97;2.00;;;11.70;57.80;;;;;;5046271;28;20649;-82
2021/04/11 03:21:22;;;;;;;2.40;2.20;;;11.70;57.50;;;;;;5052554;28;20199;-82
2021/04/11 03:23:49;;;;;;;2.00;1.80;;;11.70;57.40;;;;;;5048872;28;20695;-81
2021/04/11 03:26:22;;;;;;;2.57;2.37;;;11.70;57.30;;;;;;5051545;28;20625;-83
2021/04/11 03:28:56;;;;;;;2.23;2.03;;;11.70;57.30;;;;;;5051333;28;21209;-82
2021/04/11 03:31:26;;;;;;;1.93;1.83;;;11.70;57.30;;;;;;5046992;28;21268;-81
2021/04/11 03:33:57;;;;;;;1.50;1.40;;;11.80;57.00;;;;;;5052383;28;20610;-82
2021/04/11 03:36:27;;;;;;;1.77;1.67;;;11.80;55.80;;;;;;5047822;28;20725;-82
2021/04/11 03:38:58;;;;;;;3.10;1.80;;;11.90;56.10;;;;;;5052658;28;20676;-82
2021/04/11 03:41:29;;;;;;;1.80;1.70;;;11.80;55.80;;;;;;5045018;28;21027;-82
2021/04/11 03:43:59;;;;;;;3.53;2.00;;;11.70;55.80;;;;;;5047978;28;21179;-82
2021/04/11 03:46:30;;;;;;;2.13;1.93;;;11.60;56.20;;;;;;5047817;28;20619;-82
2021/04/11 03:49:04;;;;;;;2.13;1.87;;;11.60;56.40;;;;;;5048037;28;21357;-82
2021/04/11 03:51:37;;;;;;;1.83;1.70;;;11.60;56.30;;;;;;5040555;28;20658;-82
2021/04/11 03:54:12;;;;;;;2.17;1.80;;;11.60;56.00;;;;;;5049194;28;20626;-82
2021/04/11 03:56:43;;;;;;;1.70;1.60;;;11.70;55.60;;;;;;5048728;28;20256;-82
2021/04/11 03:59:17;;;;;;;3.23;2.00;;;11.70;54.60;;;;;;5047874;28;20909;-82
2021/04/11 04:01:50;;;;;;;5.53;1.97;;;11.70;55.10;;;;;;5050211;28;20665;-83
2021/04/11 04:04:21;;;;;;;2.50;1.70;;;11.70;54.60;;;;;;5047634;28;20634;-82
2021/04/11 04:07:09;;;;;;;3.03;2.07;;;11.70;55.10;;;;;;5057316;28;20624;-82
2021/04/11 04:09:37;;;;;;;4.37;2.07;;;11.80;54.60;;;;;;5042782;28;20627;-82
2021/04/11 04:12:24;;;;;;;2.27;2.07;;;11.90;54.00;;;;;;5050168;28;20725;-82
2021/04/11 04:15:19;;;;;;;2.50;1.93;;;11.90;54.20;;;;;;5047679;28;20679;-82
2021/04/11 04:18:00;;;;;;;2.83;2.13;;;11.80;54.50;;;;;;5057246;28;20622;-82
2021/04/11 04:20:35;;;;;;;5.20;4.05;;;11.70;55.20;;;;;;5057288;28;20564;-82
2021/04/11 04:23:22;;;;;;;3.73;1.93;;;11.70;55.50;;;;;;5053952;28;20629;-82
2021/04/11 04:26:01;;;;;;;2.07;1.90;;;11.70;55.20;;;;;;5055952;28;21416;-82
2021/04/11 04:28:46;;;;;;;3.00;2.53;;;11.70;55.10;;;;;;5044871;28;21193;-82
2021/04/11 04:31:25;;;;;;;1.60;1.50;;;11.60;54.80;;;;;;5055569;28;20212;-82
2021/04/11 04:34:05;;;;;;;2.93;1.87;;;11.70;54.50;;;;;;5048313;28;20633;-82
2021/04/11 04:36:39;;;;;;;2.20;1.67;;;11.80;54.40;;;;;;5062653;28;20993;-82
2021/04/11 04:39:23;;;;;;;2.17;1.83;;;11.50;54.40;;;;;;5041457;28;20626;-82
2021/04/11 04:41:56;;;;;;;3.87;1.93;;;11.50;55.00;;;;;;5052318;28;20756;-81
2021/04/11 04:44:33;;;;;;;1.63;1.50;;;11.60;54.80;;;;;;5048109;28;21024;-82
2021/04/11 04:47:08;;;;;;;2.65;2.05;;;11.70;54.40;;;;;;5058141;28;20660;-82
2021/04/11 04:49:43;;;;;;;2.38;2.20;;;11.80;54.10;;;;;;5048992;28;20199;-82
2021/04/11 04:52:13;;;;;;;3.37;2.23;;;11.80;54.30;;;;;;5060639;28;20273;-82
2021/04/11 04:54:47;;;;;;;2.60;2.40;;;11.70;54.30;;;;;;5045970;28;21023;-82
2021/04/11 04:57:18;;;;;;;5.10;2.20;;;11.80;54.60;;;;;;5051231;28;21393;-82
2021/04/11 04:59:51;;;;;;;2.43;2.23;;;11.80;54.70;;;;;;5047093;28;20634;-82
2021/04/11 05:02:23;;;;;;;2.20;2.00;;;11.80;55.10;;;;;;5052412;28;20644;-82
2021/04/11 05:04:56;;;;;;;3.30;2.00;;;11.80;55.10;;;;;;5046791;28;21236;-82
2021/04/11 05:07:26;;;;;;;2.17;2.00;;;11.70;54.90;;;;;;5051120;28;20626;-82
2021/04/11 05:09:59;;;;;;;2.30;2.10;;;11.70;55.40;;;;;;5049747;28;20746;-82
2021/04/11 05:12:33;;;;;;;2.33;2.13;;;11.70;55.50;;;;;;5049681;28;20662;-81
2021/04/11 05:15:05;;;;;;;2.20;2.00;;;11.70;55.20;;;;;;5051321;28;20726;-82
2021/04/11 05:17:35;;;;;;;2.40;2.20;;;11.70;55.40;;;;;;5046971;28;20764;-82
2021/04/11 05:20:06;;;;;;;3.10;2.73;;;11.70;55.40;;;;;;5055844;28;20630;-82
2021/04/11 05:22:38;;;;;;;2.30;2.10;;;11.80;55.40;;;;;;5042073;28;20994;-81
2021/04/11 05:25:10;;;;;;;2.60;2.40;;;11.90;55.40;;;;;;5050408;28;20684;-82
2021/04/11 05:27:46;;;;;;;2.33;2.13;;;11.80;54.60;;;;;;5040864;28;20658;-83
2021/04/11 05:30:18;;;;;;;4.40;2.60;;;11.80;55.00;;;;;;5050765;28;20630;-82
2021/04/11 05:32:49;;;;;;;3.17;2.10;;;11.90;55.10;;;;;;5044280;28;20660;-82
2021/04/11 05:35:16;;;;;;;2.90;2.60;;;12.00;54.70;;;;;;5051289;28;20629;-83
2021/04/11 05:37:57;;;;;;;2.70;2.27;;;12.10;54.90;;;;;;5044263;28;20637;-82
2021/04/11 05:40:28;;;;;;;2.63;2.43;;;12.00;54.80;;;;;;5055614;28;20618;-82
2021/04/11 05:42:59;;;;;;;2.27;2.07;;;12.10;55.40;;;;;;5048088;28;21473;-82
2021/04/11 05:45:30;;;;;;;2.43;2.23;;;12.10;55.40;;;;;;5048182;28;20986;-83
2021/04/11 05:48:14;;;;;;;2.40;2.13;;;12.20;54.80;;;;;;5049319;28;20690;-83
2021/04/11 05:50:46;;;;;;;5.33;2.30;;;12.30;54.70;;;;;;5041490;28;20223;-83
2021/04/11 05:53:19;;;;;;;2.43;1.90;;;12.40;54.70;;;;;;5051292;28;20676;-82
2021/04/11 05:55:53;;;;;;;5.73;2.07;;;12.40;54.20;;;;;;5048477;28;20672;-83
2021/04/11 05:58:22;;;;;;;3.43;2.03;;;12.50;53.80;;;;;;5049010;28;20625;-82
2021/04/11 06:00:54;;;;;;;2.33;2.13;;;12.50;53.40;;;;;;5044021;28;20622;-83
2021/04/11 06:03:24;;;;;;;3.53;2.40;;;12.60;53.40;;;;;;5052272;28;20625;-82
2021/04/11 06:05:54;;;;;;;2.73;2.53;;;12.60;53.40;;;;;;5050321;28;20657;-83
2021/04/11 06:08:28;;;;;;;3.93;2.10;;;12.60;53.50;;;;;;5052094;28;20614;-83
2021/04/11 06:11:00;;;;;;;2.57;2.10;;;12.60;53.80;;;;;;5049880;28;20633;-83
2021/04/11 06:13:35;;;;;;;2.23;2.03;;;12.70;53.60;;;;;;5065771;28;20618;-83
2021/04/11 06:16:06;;;;;;;2.03;1.90;;;12.80;53.60;;;;;;5068802;28;20658;-83
2021/04/11 06:18:33;;;;;;;2.60;2.23;;;12.90;53.70;;;;;;5056681;28;20625;-83
2021/04/11 06:21:06;;;;;;;2.50;2.30;;;12.90;53.20;;;;;;5057789;28;20659;-83
2021/04/11 06:23:40;;;;;;;3.37;2.30;;;13.00;53.10;;;;;;5043720;28;20618;-83
2021/04/11 06:26:12;;;;;;;3.60;2.60;;;13.10;53.40;;;;;;5043239;28;20615;-83
2021/04/11 06:28:47;;;;;;;2.00;1.80;;;13.10;53.30;;;;;;5051513;28;20725;-84
2021/04/11 06:31:23;;;;;;;2.77;2.10;;;13.20;53.10;;;;;;5050635;28;20711;-84
2021/04/11 06:34:07;;;;;;;2.70;2.50;;;13.20;53.00;;;;;;5049701;28;20629;-84
2021/04/11 06:36:38;;;;;;;3.80;2.37;;;13.30;53.40;;;;;;5045535;28;20638;-83
2021/04/11 06:39:09;;;;;;;3.07;2.50;;;13.50;53.70;;;;;;5048856;28;20633;-83
2021/04/11 06:42:17;;;;;;;2.67;2.47;;;13.50;53.40;;;;;;5052532;28;20630;-82
2021/04/11 06:45:07;;;;;;;2.10;1.77;;;13.70;53.50;;;;;;5042278;28;20638;-82
2021/04/11 06:47:56;;;;;;;2.73;2.00;;;13.80;53.00;;;;;;5045810;28;21267;-82
2021/04/11 06:50:48;;;;;;;1.67;1.57;;;13.80;52.00;;;;;;5056904;28;21241;-82
2021/04/11 06:53:26;;;;;;;2.93;2.20;;;14.00;52.10;;;;;;5046044;28;20641;-82
2021/04/11 06:56:22;;;;;;;2.37;1.80;;;14.10;52.10;;;;;;5054697;28;20633;-82
2021/04/11 06:58:52;;;;;;;1.77;1.60;;;14.10;51.50;;;;;;5049061;28;20609;-82
2021/04/11 07:02:01;;;;;;;2.10;1.63;;;14.10;51.10;;;;;;5059783;28;20735;-82
2021/04/11 07:04:58;;;;;;;3.00;1.77;;;14.20;51.10;;;;;;5050821;28;21183;-85
2021/04/11 07:08:01;;;;;;;2.73;2.40;;;14.30;51.30;;;;;;5048138;28;20638;-86
2021/04/11 07:10:39;;;;;;;2.20;2.00;;;14.40;51.10;;;;;;5050995;28;20615;-86
2021/04/11 07:13:37;;;;;;;2.43;2.00;;;14.60;51.30;;;;;;5052484;28;20672;-87
2021/04/11 07:16:30;;;;;;;2.87;2.27;;;14.30;50.70;;;;;;5050617;28;20640;-86
2021/04/11 07:19:30;;;;;;;2.80;2.43;;;14.40;51.20;;;;;;5051109;28;20626;-87
2021/04/11 07:22:22;;;;;;;6.17;2.07;;;14.40;51.10;;;;;;5047656;28;20610;-86
2021/04/11 07:25:28;;;;;;;3.40;2.13;;;14.60;51.00;;;;;;5050961;28;20630;-86
2021/04/11 07:28:25;;;;;;;2.30;2.10;;;14.80;51.00;;;;;;5041859;28;20673;-87
2021/04/11 07:31:04;;;;;;;2.10;1.93;;;14.90;51.30;;;;;;5044970;28;21187;-86
2021/04/11 07:33:57;;;;;;;2.23;2.13;;;14.90;50.70;;;;;;5050652;28;21020;-85
2021/04/11 07:36:33;;;;;;;2.00;1.87;;;15.00;51.00;;;;;;5005689;28;20670;-86
2021/04/11 07:39:24;;;;;;;2.90;2.70;;;15.00;50.90;;;;;;5047524;28;20721;-85
2021/04/11 07:42:12;;;;;;;4.10;2.60;;;14.90;50.80;;;;;;5051708;28;21075;-85
2021/04/11 07:44:58;;;;;;;2.53;2.30;;;15.00;50.80;;;;;;5031902;28;20612;-84
2021/04/11 07:47:45;;;;;;;1.70;1.60;;;15.00;51.30;;;;;;5050471;28;20612;-85
2021/04/11 07:50:26;;;;;;;3.63;2.67;;;15.30;51.50;;;;;;5051554;28;20607;-86
2021/04/11 07:53:26;;;;;;;1.93;1.80;;;15.20;51.30;;;;;;5051789;28;20655;-86
2021/04/11 07:56:05;;;;;;;2.23;2.13;;;15.40;51.30;;;;;;5025895;28;20621;-85
2021/04/11 07:59:05;;;;;;;2.13;1.80;;;15.30;50.80;;;;;;5052059;28;21161;-86
2021/04/11 08:02:05;;;;;;;3.10;1.70;;;15.30;51.00;;;;;;5037295;28;20703;-86
2021/04/11 08:04:49;;;;;;;1.50;1.40;;;15.60;50.50;;;;;;5052232;28;20636;-85
2021/04/11 08:07:27;;;;;;;1.37;1.27;;;15.90;50.70;;;;;;5052267;28;20621;-86
2021/04/11 08:10:08;;;;;;;1.40;1.30;;;16.10;49.70;;;;;;5052132;28;20622;-86
2021/04/11 08:13:16;;;;;;;1.67;1.27;;;16.10;49.10;;;;;;5052740;28;20646;-86
2021/04/11 08:15:50;;;;;;;2.07;1.47;;;16.30;49.40;;;;;;5052502;28;20721;-85
2021/04/11 08:19:05;;;;;;;1.63;1.53;;;16.30;49.20;;;;;;5052859;28;20663;-86
2021/04/11 08:21:38;;;;;;;1.80;1.20;;;16.30;49.40;;;;;;4990967;28;21014;-86
2021/04/11 08:24:24;;;;;;;1.53;1.20;;;16.40;48.90;;;;;;4989740;28;20624;-85
2021/04/11 08:27:21;;;;;;;1.60;1.30;;;16.30;49.00;;;;;;5034090;28;20713;-86
2021/04/11 08:30:29;;;;;;;2.10;1.60;;;16.60;49.60;;;;;;5050699;28;21480;-85
2021/04/11 08:33:35;;;;;;;1.30;1.20;;;16.80;49.40;;;;;;5048573;28;20654;-85
2021/04/11 08:36:40;;;;;;;2.37;1.50;;;16.80;48.90;;;;;;4962587;28;20662;-85
2021/04/11 08:39:33;;;;;;;3.73;1.43;;;17.20;49.40;;;;;;4961220;28;20627;-85
2021/04/11 08:42:51;;;;;;;2.03;1.40;;;17.40;48.50;;;;;;5038837;28;20615;-86
2021/04/11 08:45:54;;;;;;;1.20;1.13;;;17.40;48.50;;;;;;5013695;28;20626;-85
2021/04/11 08:48:56;;;;;;;1.60;1.27;;;17.50;48.00;;;;;;5049007;28;20618;-85
2021/04/11 08:51:43;;;;;;;1.07;1.07;;;17.50;47.60;;;;;;5047601;28;21080;-85
2021/04/11 08:54:23;;;;;;;1.30;1.20;;;17.40;47.80;;;;;;5050687;28;21090;-85
2021/04/11 08:56:58;;;;;;;1.17;1.07;;;17.60;47.90;;;;;;5050165;28;20618;-85
2021/04/11 08:59:32;;;;;;;1.00;0.90;;;18.00;47.90;;;;;;5051665;28;20960;-85
2021/04/11 09:02:25;;;;;;;1.67;1.43;;;17.90;47.10;;;;;;5049024;28;20687;-84
2021/04/11 09:04:56;;;;;;;2.30;1.20;;;18.00;47.50;;;;;;5048047;28;20610;-84
2021/04/11 09:07:49;;;;;;;1.73;1.40;;;18.00;47.50;;;;;;5051115;28;20622;-85
2021/04/11 09:10:26;;;;;;;1.37;1.27;;;18.20;47.10;;;;;;5048919;28;20615;-84
2021/04/11 09:13:03;;;;;;;1.83;1.33;;;18.30;46.50;;;;;;5050036;28;20665;-84
2021/04/11 09:15:40;;;;;;;3.20;1.10;;;18.00;46.10;;;;;;5050395;28;20642;-85
2021/04/11 09:18:25;;;;;;;2.73;1.23;;;18.10;46.20;;;;;;5048893;28;20621;-84
2021/04/11 09:21:39;;;;;;;2.03;1.30;;;17.90;46.10;;;;;;5049560;28;20626;-84
2021/04/11 09:24:10;;;;;;;3.13;1.70;;;17.90;46.30;;;;;;4996651;28;21237;-84
2021/04/11 09:27:15;;;;;;;1.33;1.20;;;17.70;46.50;;;;;;5007630;28;20627;-85
2021/04/11 09:29:52;;;;;;;1.97;1.20;;;17.80;46.60;;;;;;5030429;28;21436;-85
2021/04/11 09:32:49;;;;;;;2.40;1.70;;;17.70;46.40;;;;;;5047700;28;20658;-84
2021/04/11 09:35:27;;;;;;;1.20;1.00;;;17.70;46.60;;;;;;5047662;28;20607;-84
2021/04/11 09:38:30;;;;;;;1.50;1.33;;;18.00;46.90;;;;;;5049426;28;20610;-85
2021/04/11 09:41:32;;;;;;;1.30;1.20;;;18.00;46.50;;;;;;5047291;28;21151;-84
2021/04/11 09:44:12;;;;;;;1.90;1.57;;;18.20;46.80;;;;;;5044602;28;20611;-84
2021/04/11 09:46:57;;;;;;;1.97;1.37;;;18.10;45.90;;;;;;5047512;28;21218;-84
2021/04/11 09:49:40;;;;;;;1.30;1.20;;;17.90;46.60;;;;;;5048309;28;20627;-85
2021/04/11 09:52:40;;;;;;;1.67;1.57;;;17.80;47.10;;;;;;5048275;28;21117;-84
2021/04/11 09:55:14;;;;;;;2.10;1.00;;;18.20;47.60;;;;;;5048693;28;20963;-84
2021/04/11 09:58:08;;;;;;;1.57;1.30;;;18.20;46.60;;;;;;5047261;28;20606;-84
2021/04/11 10:00:38;;;;;;;1.17;1.07;;;18.40;47.40;;;;;;5049549;28;20627;-85
2021/04/11 10:03:35;;;;;;;1.33;1.23;;;18.60;46.00;;;;;;5052846;28;20637;-85
2021/04/11 10:06:15;;;;;;;1.30;1.20;;;18.90;45.70;;;;;;5053772;28;20615;-85
2021/04/11 10:09:12;;;;;;;3.60;1.43;;;18.40;45.80;;;;;;5051193;28;20983;-85
2021/04/11 10:11:57;;;;;;;1.43;1.20;;;18.60;46.20;;;;;;5053333;28;20674;-85
2021/04/11 10:14:42;;;;;;;1.30;1.20;;;18.70;45.20;;;;;;5051604;28;20643;-84
2021/04/11 10:17:28;;;;;;;2.27;1.40;;;19.20;45.60;;;;;;5053217;28;20620;-85
2021/04/11 10:20:06;;;;;;;1.60;1.50;;;19.30;44.60;;;;;;5052360;28;20629;-85
2021/04/11 10:22:39;;;;;;;1.53;1.13;;;19.40;44.20;;;;;;5056640;28;20640;-85
2021/04/11 10:25:15;;;;;;;1.60;1.50;;;19.90;44.40;;;;;;5053246;28;20612;-86
2021/04/11 10:27:54;;;;;;;1.70;1.33;;;20.10;43.70;;;;;;5054450;28;21236;-86
2021/04/11 10:30:22;;;;;;;1.50;1.40;;;20.50;43.40;;;;;;5045941;28;20716;-83
2021/04/11 10:33:05;;;;;;;2.10;1.30;;;20.20;42.70;;;;;;5051813;28;20665;-84
2021/04/11 10:35:38;;;;;;;1.27;1.20;;;20.00;43.40;;;;;;5052927;28;20992;-83
2021/04/11 10:38:13;;;;;;;1.60;1.23;;;19.80;43.30;;;;;;5052908;28;20618;-83
2021/04/11 10:41:13;;;;;;;1.27;1.17;;;19.50;42.30;;;;;;5051232;28;20632;-84
2021/04/11 10:44:00;;;;;;;1.50;1.20;;;19.70;42.60;;;;;;5042662;28;20686;-84
2021/04/11 10:46:31;;;;;;;1.90;1.63;;;19.70;43.40;;;;;;5052095;28;20621;-84
2021/04/11 10:49:24;;;;;;;1.53;1.43;;;19.80;42.90;;;;;;5049876;28;20621;-84
2021/04/11 10:52:17;;;;;;;3.23;1.67;;;19.80;43.20;;;;;;5049850;28;20696;-84
2021/04/11 10:55:23;;;;;;;1.53;1.43;;;19.30;42.90;;;;;;5051207;28;20628;-84
2021/04/11 10:58:27;;;;;;;3.43;1.43;;;19.00;43.10;;;;;;5034248;28;20632;-83
2021/04/11 11:01:05;;;;;;;2.70;1.90;;;19.10;43.50;;;;;;5052156;28;20616;-84
2021/04/11 11:04:15;;;;;;;1.70;1.50;;;19.00;43.50;;;;;;5051492;28;21018;-83
2021/04/11 11:07:14;;;;;;;1.70;1.60;;;18.90;43.30;;;;;;5046452;28;20626;-83
2021/04/11 11:09:49;;;;;;;1.60;1.50;;;18.60;43.40;;;;;;5051337;28;20624;-83
2021/04/11 11:12:36;;;;;;;1.57;1.47;;;18.30;43.90;;;;;;5051253;28;20663;-83
2021/04/11 11:15:31;;;;;;;1.50;1.40;;;18.40;44.20;;;;;;5050950;28;20676;-83
2021/04/11 11:18:36;;;;;;;3.67;1.90;;;18.40;43.90;;;;;;5048696;28;20610;-83
2021/04/11 11:21:26;;;;;;;1.73;1.63;;;18.30;43.90;;;;;;5050139;28;20614;-83
2021/04/11 11:24:20;;;;;;;1.73;1.63;;;18.90;44.90;;;;;;5052498;28;20680;-83
2021/04/11 11:27:06;;;;;;;1.80;1.70;;;18.90;43.50;;;;;;5052210;28;20770;-83
2021/04/11 11:30:30;;;;;;;1.50;1.40;;;18.70;44.40;;;;;;5053322;28;21020;-83
2021/04/11 11:33:10;;;;;;;1.87;1.67;;;19.00;44.10;;;;;;5047972;28;20681;-83
2021/04/11 11:35:53;;;;;;;2.37;1.60;;;19.20;44.20;;;;;;5048448;28;20617;-83
2021/04/11 11:38:27;;;;;;;2.93;2.07;;;19.40;43.90;;;;;;5050399;28;20630;-84
2021/04/11 11:41:08;;;;;;;1.77;1.67;;;19.80;43.80;;;;;;5050669;28;21181;-84
2021/04/11 11:43:40;;;;;;;2.23;2.10;;;20.10;43.00;;;;;;5048141;28;20636;-84
2021/04/11 11:46:41;;;;;;;3.10;1.50;;;19.60;43.10;;;;;;5051135;28;20629;-84
2021/04/11 11:49:16;;;;;;;2.70;1.80;;;20.30;43.30;;;;;;5050642;28;20627;-84
2021/04/11 11:51:55;;;;;;;1.87;1.70;;;21.70;41.90;;;;;;5050639;28;20672;-84
2021/04/11 11:54:29;;;;;;;1.53;1.43;;;23.50;41.00;;;;;;5050118;28;20630;-84
2021/04/11 11:57:08;;;;;;;4.43;1.80;;;25.00;39.10;;;;;;5050093;28;20645;-84
2021/04/11 11:59:40;;;;;;;2.80;2.27;;;26.30;37.70;;;;;;5050386;28;20700;-85
2021/04/11 12:02:24;;;;;;;2.10;1.67;;;27.80;35.10;;;;;;5052348;28;20676;-85
2021/04/11 12:05:07;;;;;;;2.17;1.80;;;29.30;34.10;;;;;;5051734;28;20949;-84
2021/04/11 12:07:40;;;;;;;5.60;1.47;;;29.50;33.70;;;;;;5050336;28;20664;-84
2021/04/11 12:10:17;;;;;;;1.97;1.87;;;33.40;30.20;;;;;;5048144;28;20630;-83
2021/04/11 12:12:55;;;;;;;1.30;1.03;;;33.90;27.90;;;;;;5050540;28;20688;-83
2021/04/11 12:15:27;;;;;;;1.90;1.70;;;33.60;29.30;;;;;;5052182;28;21187;-82
2021/04/11 12:18:03;;;;;;;2.40;2.20;;;33.90;28.00;;;;;;5051320;28;20622;-83
2021/04/11 12:20:37;;;;;;;1.50;1.40;;;33.20;28.80;;;;;;5052747;28;20610;-83
2021/04/11 12:23:08;;;;;;;1.40;1.30;;;31.50;29.70;;;;;;5046673;28;20629;-83
2021/04/11 12:25:36;;;;;;;3.40;2.57;;;29.20;31.20;;;;;;5052317;28;20615;-85
2021/04/11 12:28:11;;;;;;;3.47;1.73;;;27.60;32.70;;;;;;5052012;28;21068;-84
2021/04/11 12:30:40;;;;;;;1.50;1.40;;;25.80;34.20;;;;;;5052238;28;20618;-83
2021/04/11 12:33:18;;;;;;;1.80;1.70;;;25.70;34.90;;;;;;5050120;28;21238;-83
2021/04/11 12:35:56;;;;;;;1.67;1.43;;;25.80;35.20;;;;;;5051888;28;20622;-83
2021/04/11 12:38:30;;;;;;;1.60;1.50;;;25.80;34.90;;;;;;5051647;28;20618;-83
2021/04/11 12:41:01;;;;;;;1.70;1.50;;;25.20;35.50;;;;;;5051939;28;20628;-83
2021/04/11 12:43:37;;;;;;;1.67;1.20;;;24.60;36.10;;;;;;5050931;28;20622;-82
2021/04/11 12:46:08;;;;;;;1.70;1.60;;;24.70;35.80;;;;;;5051900;28;20956;-83
2021/04/11 12:48:47;;;;;;;2.23;2.03;;;24.50;36.60;;;;;;5051515;28;20675;-82
2021/04/11 12:51:21;;;;;;;2.70;2.03;;;24.50;36.20;;;;;;5051737;28;20620;-82
2021/04/11 12:53:59;;;;;;;1.50;1.40;;;24.20;36.40;;;;;;5050567;28;20613;-82
2021/04/11 12:56:29;;;;;;;1.70;1.60;;;23.50;37.00;;;;;;5051553;28;21174;-82
2021/04/11 12:58:58;;;;;;;1.90;1.80;;;22.50;37.10;;;;;;5051501;28;20617;-82
2021/04/11 13:01:29;;;;;;;2.80;1.77;;;21.70;39.00;;;;;;5051599;28;20634;-82
2021/04/11 13:04:03;;;;;;;1.60;1.50;;;21.50;38.70;;;;;;5050829;28;20611;-82
2021/04/11 13:06:40;;;;;;;2.10;1.30;;;21.80;39.50;;;;;;5051042;28;20627;-82
2021/04/11 13:09:19;;;;;;;1.23;1.23;;;22.80;38.10;;;;;;5051264;28;20623;-82
2021/04/11 13:11:51;;;;;;;1.50;1.40;;;23.70;38.20;;;;;;5051457;28;20651;-82
2021/04/11 13:14:25;;;;;;;1.30;1.20;;;27.10;36.30;;;;;;5049928;28;20598;-82
2021/04/11 13:16:57;;;;;;;1.13;1.03;;;27.30;32.30;;;;;;5051092;28;20622;-82
2021/04/11 13:19:26;;;;;;;1.80;1.70;;;27.10;33.80;;;;;;5051417;28;20614;-82
2021/04/11 13:22:00;;;;;;;1.40;1.30;;;24.40;35.10;;;;;;5051295;28;20626;-82
2021/04/11 13:24:33;;;;;;;1.83;1.50;;;23.10;36.80;;;;;;5050548;28;20625;-82
2021/04/11 13:27:08;;;;;;;1.53;1.43;;;22.40;38.60;;;;;;5051014;28;20612;-82
2021/04/11 13:29:41;;;;;;;1.50;1.37;;;22.40;38.80;;;;;;5050961;28;20627;-81
2021/04/11 13:32:21;;;;;;;2.20;1.50;;;22.10;39.60;;;;;;5051036;28;20755;-81
2021/04/11 13:35:02;;;;;;;2.20;1.97;;;21.60;39.30;;;;;;5050558;28;20642;-81
2021/04/11 13:37:29;;;;;;;1.63;1.20;;;21.40;39.10;;;;;;5050900;28;20615;-81
2021/04/11 13:40:01;;;;;;;1.27;1.10;;;21.00;40.10;;;;;;5050890;28;20971;-82
2021/04/11 13:42:39;;;;;;;1.40;1.30;;;21.10;40.40;;;;;;5050900;28;20614;-82